sensor_id;sensor_type;location;lat;lon;timestamp;temperature;humidity
23839;DHT22;12100;44.384;20.272;2022-09-21T00:00:22;6.60;99.90
23839;DHT22;12100;44.384;20.272;2022-09-21T00:02:49;6.60;99.90
23839;DHT22;12100;44.384;20.272;2022-09-21T00:05:14;6.50;99.90
23839;DHT22;12100;44.384;20.272;2022-09-21T00:07:42;6.50;99.90
23839;DHT22;12100;44.384;20.272;2022-09-21T00:10:08;6.50;99.90
23839;DHT22;12100;44.384;20.272;2022-09-21T00:12:34;6.40;99.90
23839;DHT22;12100;44.384;20.272;2022-09-21T00:15:07;6.40;99.90
23839;DHT22;12100;44.384;20.272;2022-09-21T00:17:34;6.40;99.90
23839;DHT22;12100;44.384;20.272;2022-09-21T00:20:00;6.40;99.90
23839;DHT22;12100;44.384;20.272;2022-09-21T00:22:27;6.40;99.90
23839;DHT22;12100;44.384;20.272;2022-09-21T00:24:53;6.40;99.90
23839;DHT22;12100;44.384;20.272;2022-09-21T00:27:21;6.40;99.90
23839;DHT22;12100;44.384;20.272;2022-09-21T00:29:46;6.30;99.90
23839;DHT22;12100;44.384;20.272;2022-09-21T00:32:13;6.40;99.90
23839;DHT22;12100;44.384;20.272;2022-09-21T00:34:40;6.40;99.90
23839;DHT22;12100;44.384;20.272;2022-09-21T00:37:06;6.30;99.90
23839;DHT22;12100;44.384;20.272;2022-09-21T00:39:34;6.30;99.90
23839;DHT22;12100;44.384;20.272;2022-09-21T00:41:59;6.30;99.90
23839;DHT22;12100;44.384;20.272;2022-09-21T00:44:34;6.20;99.90
23839;DHT22;12100;44.384;20.272;2022-09-21T00:47:06;6.20;99.90
23839;DHT22;12100;44.384;20.272;2022-09-21T00:49:35;6.20;99.90
23839;DHT22;12100;44.384;20.272;2022-09-21T00:52:04;6.10;99.90
23839;DHT22;12100;44.384;20.272;2022-09-21T00:54:35;6.10;99.90
23839;DHT22;12100;44.384;20.272;2022-09-21T00:57:03;6.10;99.90
23839;DHT22;12100;44.384;20.272;2022-09-21T00:59:31;6.10;99.90
23839;DHT22;12100;44.384;20.272;2022-09-21T01:01:58;6.10;99.90
23839;DHT22;12100;44.384;20.272;2022-09-21T01:04:24;6.10;99.90
23839;DHT22;12100;44.384;20.272;2022-09-21T01:06:53;6.00;99.90
23839;DHT22;12100;44.384;20.272;2022-09-21T01:09:20;6.00;99.90
23839;DHT22;12100;44.384;20.272;2022-09-21T01:14:35;6.10;99.90
23839;DHT22;12100;44.384;20.272;2022-09-21T01:31:10;6.30;99.90
23839;DHT22;12100;44.384;20.272;2022-09-21T01:33:44;6.30;99.90
23839;DHT22;12100;44.384;20.272;2022-09-21T01:36:17;6.40;99.90
23839;DHT22;12100;44.384;20.272;2022-09-21T01:38:48;6.40;99.90
23839;DHT22;12100;44.384;20.272;2022-09-21T01:41:18;6.40;99.90
23839;DHT22;12100;44.384;20.272;2022-09-21T01:43:54;6.40;99.90
23839;DHT22;12100;44.384;20.272;2022-09-21T01:46:27;6.50;99.90
23839;DHT22;12100;44.384;20.272;2022-09-21T01:48:58;6.60;99.90
23839;DHT22;12100;44.384;20.272;2022-09-21T01:51:30;6.70;99.90
23839;DHT22;12100;44.384;20.272;2022-09-21T01:54:03;6.80;99.90
23839;DHT22;12100;44.384;20.272;2022-09-21T01:56:46;6.80;99.90
23839;DHT22;12100;44.384;20.272;2022-09-21T01:59:24;6.90;99.90
23839;DHT22;12100;44.384;20.272;2022-09-21T02:01:59;7.00;99.90
23839;DHT22;12100;44.384;20.272;2022-09-21T02:04:27;7.10;99.90
23839;DHT22;12100;44.384;20.272;2022-09-21T02:06:53;7.20;99.90
23839;DHT22;12100;44.384;20.272;2022-09-21T02:09:19;7.30;99.90
23839;DHT22;12100;44.384;20.272;2022-09-21T02:11:45;7.30;99.90
23839;DHT22;12100;44.384;20.272;2022-09-21T02:14:17;7.40;99.90
23839;DHT22;12100;44.384;20.272;2022-09-21T02:24:53;7.60;99.90
23839;DHT22;12100;44.384;20.272;2022-09-21T02:27:49;7.70;99.90
23839;DHT22;12100;44.384;20.272;2022-09-21T02:30:24;7.70;99.90
23839;DHT22;12100;44.384;20.272;2022-09-21T02:32:58;7.60;99.90
23839;DHT22;12100;44.384;20.272;2022-09-21T02:43:26;7.60;99.90
23839;DHT22;12100;44.384;20.272;2022-09-21T02:46:09;7.70;99.90
23839;DHT22;12100;44.384;20.272;2022-09-21T02:48:39;7.70;99.90
23839;DHT22;12100;44.384;20.272;2022-09-21T02:51:10;7.60;99.90
23839;DHT22;12100;44.384;20.272;2022-09-21T02:53:40;7.60;99.90
23839;DHT22;12100;44.384;20.272;2022-09-21T02:56:07;7.60;99.90
23839;DHT22;12100;44.384;20.272;2022-09-21T02:58:40;7.60;99.90
23839;DHT22;12100;44.384;20.272;2022-09-21T03:01:10;7.60;99.90
23839;DHT22;12100;44.384;20.272;2022-09-21T03:03:37;7.60;99.90
23839;DHT22;12100;44.384;20.272;2022-09-21T03:06:03;7.60;99.90
23839;DHT22;12100;44.384;20.272;2022-09-21T03:08:29;7.60;99.90
23839;DHT22;12100;44.384;20.272;2022-09-21T03:10:55;7.70;99.90
23839;DHT22;12100;44.384;20.272;2022-09-21T03:13:22;7.80;99.90
23839;DHT22;12100;44.384;20.272;2022-09-21T03:15:48;7.90;99.90
23839;DHT22;12100;44.384;20.272;2022-09-21T03:18:14;7.90;99.90
23839;DHT22;12100;44.384;20.272;2022-09-21T03:20:43;7.90;99.90
23839;DHT22;12100;44.384;20.272;2022-09-21T03:23:12;7.90;99.90
23839;DHT22;12100;44.384;20.272;2022-09-21T03:25:38;8.00;99.90
23839;DHT22;12100;44.384;20.272;2022-09-21T03:28:04;8.00;99.90
23839;DHT22;12100;44.384;20.272;2022-09-21T03:30:30;8.10;99.90
23839;DHT22;12100;44.384;20.272;2022-09-21T03:32:57;8.10;99.90
23839;DHT22;12100;44.384;20.272;2022-09-21T03:35:24;8.10;99.90
23839;DHT22;12100;44.384;20.272;2022-09-21T03:37:52;8.10;99.90
23839;DHT22;12100;44.384;20.272;2022-09-21T03:40:19;8.20;99.90
23839;DHT22;12100;44.384;20.272;2022-09-21T03:42:45;8.20;99.90
23839;DHT22;12100;44.384;20.272;2022-09-21T03:45:11;8.20;99.90
23839;DHT22;12100;44.384;20.272;2022-09-21T03:47:38;8.20;99.90
23839;DHT22;12100;44.384;20.272;2022-09-21T03:50:06;8.30;99.90
23839;DHT22;12100;44.384;20.272;2022-09-21T03:52:32;8.30;99.90
23839;DHT22;12100;44.384;20.272;2022-09-21T03:54:58;8.40;99.90
23839;DHT22;12100;44.384;20.272;2022-09-21T03:57:24;8.30;99.90
23839;DHT22;12100;44.384;20.272;2022-09-21T03:59:50;8.30;99.90
23839;DHT22;12100;44.384;20.272;2022-09-21T04:02:16;8.40;99.90
23839;DHT22;12100;44.384;20.272;2022-09-21T04:04:42;8.30;99.90
23839;DHT22;12100;44.384;20.272;2022-09-21T04:07:08;8.20;99.90
23839;DHT22;12100;44.384;20.272;2022-09-21T04:09:33;8.30;99.90
23839;DHT22;12100;44.384;20.272;2022-09-21T04:11:59;8.30;99.90
23839;DHT22;12100;44.384;20.272;2022-09-21T04:14:25;8.20;99.90
23839;DHT22;12100;44.384;20.272;2022-09-21T04:16:51;8.30;99.90
23839;DHT22;12100;44.384;20.272;2022-09-21T04:19:18;8.20;99.90
23839;DHT22;12100;44.384;20.272;2022-09-21T04:21:43;8.10;99.90
23839;DHT22;12100;44.384;20.272;2022-09-21T04:24:09;8.20;99.90
23839;DHT22;12100;44.384;20.272;2022-09-21T04:26:35;8.20;99.90
23839;DHT22;12100;44.384;20.272;2022-09-21T04:29:02;8.30;99.90
23839;DHT22;12100;44.384;20.272;2022-09-21T04:31:29;8.20;99.90
23839;DHT22;12100;44.384;20.272;2022-09-21T04:33:57;8.20;99.90
23839;DHT22;12100;44.384;20.272;2022-09-21T04:36:24;8.20;99.90
23839;DHT22;12100;44.384;20.272;2022-09-21T04:38:50;8.20;99.90
23839;DHT22;12100;44.384;20.272;2022-09-21T04:41:17;8.30;99.90
23839;DHT22;12100;44.384;20.272;2022-09-21T04:43:44;8.30;99.90
23839;DHT22;12100;44.384;20.272;2022-09-21T04:46:13;8.40;99.90
23839;DHT22;12100;44.384;20.272;2022-09-21T04:48:39;8.40;99.90
23839;DHT22;12100;44.384;20.272;2022-09-21T04:51:06;8.40;99.90
23839;DHT22;12100;44.384;20.272;2022-09-21T04:53:36;8.50;99.90
23839;DHT22;12100;44.384;20.272;2022-09-21T04:56:03;8.50;99.90
23839;DHT22;12100;44.384;20.272;2022-09-21T04:58:30;8.60;99.90
23839;DHT22;12100;44.384;20.272;2022-09-21T05:00:56;8.70;99.90
23839;DHT22;12100;44.384;20.272;2022-09-21T05:03:23;8.70;99.90
23839;DHT22;12100;44.384;20.272;2022-09-21T05:05:55;8.80;99.90
23839;DHT22;12100;44.384;20.272;2022-09-21T05:08:22;8.80;99.90
23839;DHT22;12100;44.384;20.272;2022-09-21T05:11:10;8.70;99.90
23839;DHT22;12100;44.384;20.272;2022-09-21T05:13:38;8.70;99.90
23839;DHT22;12100;44.384;20.272;2022-09-21T05:16:04;8.70;99.90
23839;DHT22;12100;44.384;20.272;2022-09-21T05:18:30;8.70;99.90
23839;DHT22;12100;44.384;20.272;2022-09-21T05:20:57;8.70;99.90
23839;DHT22;12100;44.384;20.272;2022-09-21T05:23:24;8.80;99.90
23839;DHT22;12100;44.384;20.272;2022-09-21T05:25:50;8.70;99.90
23839;DHT22;12100;44.384;20.272;2022-09-21T05:28:17;8.80;99.90
23839;DHT22;12100;44.384;20.272;2022-09-21T05:30:47;8.80;99.90
23839;DHT22;12100;44.384;20.272;2022-09-21T05:33:18;8.90;99.90
23839;DHT22;12100;44.384;20.272;2022-09-21T05:36:56;9.00;99.90
23839;DHT22;12100;44.384;20.272;2022-09-21T05:38:47;9.00;99.90
23839;DHT22;12100;44.384;20.272;2022-09-21T05:41:13;9.00;99.90
23839;DHT22;12100;44.384;20.272;2022-09-21T05:43:39;9.10;99.90
23839;DHT22;12100;44.384;20.272;2022-09-21T05:46:13;9.20;99.90
23839;DHT22;12100;44.384;20.272;2022-09-21T05:48:48;9.30;99.90
23839;DHT22;12100;44.384;20.272;2022-09-21T05:56:39;9.50;99.90
23839;DHT22;12100;44.384;20.272;2022-09-21T06:03:59;9.60;99.90
23839;DHT22;12100;44.384;20.272;2022-09-21T06:06:26;9.60;99.90
23839;DHT22;12100;44.384;20.272;2022-09-21T06:08:52;9.70;99.90
23839;DHT22;12100;44.384;20.272;2022-09-21T06:11:18;9.70;99.90
23839;DHT22;12100;44.384;20.272;2022-09-21T06:13:44;9.70;99.90
23839;DHT22;12100;44.384;20.272;2022-09-21T06:16:10;9.80;99.90
23839;DHT22;12100;44.384;20.272;2022-09-21T06:18:37;9.90;99.90
23839;DHT22;12100;44.384;20.272;2022-09-21T06:21:04;10.00;99.90
23839;DHT22;12100;44.384;20.272;2022-09-21T06:23:30;10.20;99.90
23839;DHT22;12100;44.384;20.272;2022-09-21T06:25:56;10.30;99.90
23839;DHT22;12100;44.384;20.272;2022-09-21T06:28:22;10.40;99.90
23839;DHT22;12100;44.384;20.272;2022-09-21T06:30:51;10.50;99.90
23839;DHT22;12100;44.384;20.272;2022-09-21T06:33:17;10.70;99.90
23839;DHT22;12100;44.384;20.272;2022-09-21T06:35:55;10.90;99.90
23839;DHT22;12100;44.384;20.272;2022-09-21T06:38:22;11.10;99.90
23839;DHT22;12100;44.384;20.272;2022-09-21T06:40:48;11.30;99.90
23839;DHT22;12100;44.384;20.272;2022-09-21T06:43:15;11.50;99.90
23839;DHT22;12100;44.384;20.272;2022-09-21T06:45:40;11.80;99.90
23839;DHT22;12100;44.384;20.272;2022-09-21T06:48:07;12.00;99.90
23839;DHT22;12100;44.384;20.272;2022-09-21T06:50:32;12.20;99.90
23839;DHT22;12100;44.384;20.272;2022-09-21T06:52:59;12.40;99.90
23839;DHT22;12100;44.384;20.272;2022-09-21T06:55:25;12.40;99.90
23839;DHT22;12100;44.384;20.272;2022-09-21T06:57:51;12.30;99.90
23839;DHT22;12100;44.384;20.272;2022-09-21T07:00:17;12.30;99.90
23839;DHT22;12100;44.384;20.272;2022-09-21T07:02:43;12.30;99.90
23839;DHT22;12100;44.384;20.272;2022-09-21T07:05:10;12.30;99.90
23839;DHT22;12100;44.384;20.272;2022-09-21T07:07:36;12.30;99.90
23839;DHT22;12100;44.384;20.272;2022-09-21T07:10:02;12.40;99.90
23839;DHT22;12100;44.384;20.272;2022-09-21T07:12:28;12.30;99.90
23839;DHT22;12100;44.384;20.272;2022-09-21T07:14:59;12.30;99.90
23839;DHT22;12100;44.384;20.272;2022-09-21T07:17:25;12.20;99.90
23839;DHT22;12100;44.384;20.272;2022-09-21T07:19:51;12.20;99.90
23839;DHT22;12100;44.384;20.272;2022-09-21T07:22:16;12.10;99.90
23839;DHT22;12100;44.384;20.272;2022-09-21T07:24:42;12.10;99.90
23839;DHT22;12100;44.384;20.272;2022-09-21T07:27:08;12.00;99.90
23839;DHT22;12100;44.384;20.272;2022-09-21T07:29:34;12.10;99.90
23839;DHT22;12100;44.384;20.272;2022-09-21T07:32:00;12.20;99.90
23839;DHT22;12100;44.384;20.272;2022-09-21T07:34:26;12.30;99.90
23839;DHT22;12100;44.384;20.272;2022-09-21T07:36:51;12.40;99.90
23839;DHT22;12100;44.384;20.272;2022-09-21T07:39:18;12.50;99.90
23839;DHT22;12100;44.384;20.272;2022-09-21T07:41:44;12.50;99.90
23839;DHT22;12100;44.384;20.272;2022-09-21T07:44:10;12.60;99.90
23839;DHT22;12100;44.384;20.272;2022-09-21T07:46:35;12.60;99.90
23839;DHT22;12100;44.384;20.272;2022-09-21T07:49:01;12.60;99.90
23839;DHT22;12100;44.384;20.272;2022-09-21T07:51:29;12.50;99.90
23839;DHT22;12100;44.384;20.272;2022-09-21T07:53:56;12.50;99.90
23839;DHT22;12100;44.384;20.272;2022-09-21T07:56:22;12.40;99.90
23839;DHT22;12100;44.384;20.272;2022-09-21T07:58:48;12.40;99.90
23839;DHT22;12100;44.384;20.272;2022-09-21T08:01:37;12.50;99.90
23839;DHT22;12100;44.384;20.272;2022-09-21T08:04:08;12.40;99.90
23839;DHT22;12100;44.384;20.272;2022-09-21T08:06:36;12.30;99.90
23839;DHT22;12100;44.384;20.272;2022-09-21T08:09:05;12.40;99.90
23839;DHT22;12100;44.384;20.272;2022-09-21T08:11:31;12.70;99.90
23839;DHT22;12100;44.384;20.272;2022-09-21T08:14:00;13.10;99.90
23839;DHT22;12100;44.384;20.272;2022-09-21T08:16:26;13.60;99.90
23839;DHT22;12100;44.384;20.272;2022-09-21T08:18:53;13.70;99.90
23839;DHT22;12100;44.384;20.272;2022-09-21T08:21:20;13.70;99.90
23839;DHT22;12100;44.384;20.272;2022-09-21T08:23:47;13.60;99.90
23839;DHT22;12100;44.384;20.272;2022-09-21T08:26:15;13.60;99.90
23839;DHT22;12100;44.384;20.272;2022-09-21T08:28:48;13.60;99.90
23839;DHT22;12100;44.384;20.272;2022-09-21T08:31:16;13.40;99.90
23839;DHT22;12100;44.384;20.272;2022-09-21T08:33:44;13.40;99.90
23839;DHT22;12100;44.384;20.272;2022-09-21T08:36:09;13.60;99.90
23839;DHT22;12100;44.384;20.272;2022-09-21T08:38:36;13.90;99.90
23839;DHT22;12100;44.384;20.272;2022-09-21T08:41:13;14.50;99.90
23839;DHT22;12100;44.384;20.272;2022-09-21T08:43:42;15.10;99.90
23839;DHT22;12100;44.384;20.272;2022-09-21T08:46:15;15.90;97.80
23839;DHT22;12100;44.384;20.272;2022-09-21T08:48:48;15.70;93.70
23839;DHT22;12100;44.384;20.272;2022-09-21T08:51:19;16.00;92.30
23839;DHT22;12100;44.384;20.272;2022-09-21T08:53:49;16.50;92.20
23839;DHT22;12100;44.384;20.272;2022-09-21T08:56:18;17.10;91.20
23839;DHT22;12100;44.384;20.272;2022-09-21T08:58:45;17.50;87.10
23839;DHT22;12100;44.384;20.272;2022-09-21T09:20:39;16.80;83.90
23839;DHT22;12100;44.384;20.272;2022-09-21T09:23:25;17.50;84.80
23839;DHT22;12100;44.384;20.272;2022-09-21T09:26:01;17.90;78.90
23839;DHT22;12100;44.384;20.272;2022-09-21T09:31:27;17.30;80.20
23839;DHT22;12100;44.384;20.272;2022-09-21T09:34:32;17.20;82.70
23839;DHT22;12100;44.384;20.272;2022-09-21T09:36:45;16.90;79.20
23839;DHT22;12100;44.384;20.272;2022-09-21T09:39:15;16.80;80.80
23839;DHT22;12100;44.384;20.272;2022-09-21T09:42:05;16.80;81.30
23839;DHT22;12100;44.384;20.272;2022-09-21T09:50:40;17.20;78.90
23839;DHT22;12100;44.384;20.272;2022-09-21T09:53:19;17.80;76.70
23839;DHT22;12100;44.384;20.272;2022-09-21T09:55:48;18.10;75.30
23839;DHT22;12100;44.384;20.272;2022-09-21T10:01:05;18.40;72.70
23839;DHT22;12100;44.384;20.272;2022-09-21T10:03:31;18.30;71.00
23839;DHT22;12100;44.384;20.272;2022-09-21T10:05:56;18.40;71.70
23839;DHT22;12100;44.384;20.272;2022-09-21T10:08:43;18.20;73.30
23839;DHT22;12100;44.384;20.272;2022-09-21T10:11:14;18.10;71.80
23839;DHT22;12100;44.384;20.272;2022-09-21T10:13:46;17.90;74.10
23839;DHT22;12100;44.384;20.272;2022-09-21T10:16:21;17.70;74.50
23839;DHT22;12100;44.384;20.272;2022-09-21T10:18:56;17.90;73.50
23839;DHT22;12100;44.384;20.272;2022-09-21T10:21:33;18.00;72.70
23839;DHT22;12100;44.384;20.272;2022-09-21T10:26:52;18.10;73.00
23839;DHT22;12100;44.384;20.272;2022-09-21T10:32:02;19.00;70.40
23839;DHT22;12100;44.384;20.272;2022-09-21T10:34:31;19.10;69.50
23839;DHT22;12100;44.384;20.272;2022-09-21T10:36:59;19.00;68.30
23839;DHT22;12100;44.384;20.272;2022-09-21T10:39:32;19.30;67.10
23839;DHT22;12100;44.384;20.272;2022-09-21T10:42:04;19.00;68.90
23839;DHT22;12100;44.384;20.272;2022-09-21T10:45:16;19.00;68.90
23839;DHT22;12100;44.384;20.272;2022-09-21T10:48:13;18.70;71.20
23839;DHT22;12100;44.384;20.272;2022-09-21T10:50:46;18.80;70.90
23839;DHT22;12100;44.384;20.272;2022-09-21T10:56:04;19.40;68.30
23839;DHT22;12100;44.384;20.272;2022-09-21T10:58:32;19.20;68.20
23839;DHT22;12100;44.384;20.272;2022-09-21T11:01:12;19.40;68.50
23839;DHT22;12100;44.384;20.272;2022-09-21T11:08:58;19.00;67.90
23839;DHT22;12100;44.384;20.272;2022-09-21T11:16:47;19.40;69.10
23839;DHT22;12100;44.384;20.272;2022-09-21T11:19:32;19.20;67.80
23839;DHT22;12100;44.384;20.272;2022-09-21T11:22:15;19.00;67.30
23839;DHT22;12100;44.384;20.272;2022-09-21T11:24:51;18.60;69.90
23839;DHT22;12100;44.384;20.272;2022-09-21T11:27:23;18.50;70.40
23839;DHT22;12100;44.384;20.272;2022-09-21T11:40:46;18.50;71.90
23839;DHT22;12100;44.384;20.272;2022-09-21T11:46:12;19.00;69.70
23839;DHT22;12100;44.384;20.272;2022-09-21T11:57:13;18.70;70.40
23839;DHT22;12100;44.384;20.272;2022-09-21T12:08:47;20.90;61.00
23839;DHT22;12100;44.384;20.272;2022-09-21T12:11:38;20.00;64.80
23839;DHT22;12100;44.384;20.272;2022-09-21T12:19:45;18.20;69.50
23839;DHT22;12100;44.384;20.272;2022-09-21T12:22:45;18.00;69.40
23839;DHT22;12100;44.384;20.272;2022-09-21T12:25:23;17.50;70.10
23839;DHT22;12100;44.384;20.272;2022-09-21T12:28:06;17.30;72.10
23839;DHT22;12100;44.384;20.272;2022-09-21T12:30:37;17.10;74.10
23839;DHT22;12100;44.384;20.272;2022-09-21T12:35:46;17.00;73.80
23839;DHT22;12100;44.384;20.272;2022-09-21T12:38:36;17.00;73.00
23839;DHT22;12100;44.384;20.272;2022-09-21T12:44:14;16.30;73.60
23839;DHT22;12100;44.384;20.272;2022-09-21T12:46:42;16.30;74.60
23839;DHT22;12100;44.384;20.272;2022-09-21T12:49:25;16.30;75.90
23839;DHT22;12100;44.384;20.272;2022-09-21T12:51:57;16.30;76.90
23839;DHT22;12100;44.384;20.272;2022-09-21T13:00:15;16.10;80.80
23839;DHT22;12100;44.384;20.272;2022-09-21T13:03:04;16.00;81.80
23839;DHT22;12100;44.384;20.272;2022-09-21T13:05:43;15.90;82.70
23839;DHT22;12100;44.384;20.272;2022-09-21T13:08:18;15.60;84.00
23839;DHT22;12100;44.384;20.272;2022-09-21T13:10:59;15.60;83.00
23839;DHT22;12100;44.384;20.272;2022-09-21T13:15:52;16.00;81.80
23839;DHT22;12100;44.384;20.272;2022-09-21T13:20:50;16.20;80.90
23839;DHT22;12100;44.384;20.272;2022-09-21T13:23:55;16.30;81.40
23839;DHT22;12100;44.384;20.272;2022-09-21T13:26:31;16.30;80.70
23839;DHT22;12100;44.384;20.272;2022-09-21T13:29:27;16.40;77.90
23839;DHT22;12100;44.384;20.272;2022-09-21T13:34:31;16.60;76.40
23839;DHT22;12100;44.384;20.272;2022-09-21T13:47:45;16.70;76.80
23839;DHT22;12100;44.384;20.272;2022-09-21T13:50:42;16.70;77.30
23839;DHT22;12100;44.384;20.272;2022-09-21T13:53:21;16.40;78.10
23839;DHT22;12100;44.384;20.272;2022-09-21T13:55:53;16.40;78.10
23839;DHT22;12100;44.384;20.272;2022-09-21T13:58:24;16.10;80.10
23839;DHT22;12100;44.384;20.272;2022-09-21T14:01:06;15.70;81.20
23839;DHT22;12100;44.384;20.272;2022-09-21T14:03:39;15.70;81.40
23839;DHT22;12100;44.384;20.272;2022-09-21T14:06:13;15.50;81.80
23839;DHT22;12100;44.384;20.272;2022-09-21T14:09:02;15.40;82.70
23839;DHT22;12100;44.384;20.272;2022-09-21T14:11:37;15.40;83.30
23839;DHT22;12100;44.384;20.272;2022-09-21T14:27:38;14.80;93.10
23839;DHT22;12100;44.384;20.272;2022-09-21T14:35:26;14.50;99.20
23839;DHT22;12100;44.384;20.272;2022-09-21T14:37:58;14.60;99.50
23839;DHT22;12100;44.384;20.272;2022-09-21T14:40:31;14.60;98.40
23839;DHT22;12100;44.384;20.272;2022-09-21T14:43:06;14.70;98.70
23839;DHT22;12100;44.384;20.272;2022-09-21T14:48:58;14.50;98.30
23839;DHT22;12100;44.384;20.272;2022-09-21T14:56:53;14.20;98.70
23839;DHT22;12100;44.384;20.272;2022-09-21T15:02:02;14.10;99.80
23839;DHT22;12100;44.384;20.272;2022-09-21T15:08:18;14.10;99.10
23839;DHT22;12100;44.384;20.272;2022-09-21T15:11:26;14.10;98.90
23839;DHT22;12100;44.384;20.272;2022-09-21T15:16:45;13.90;99.50
23839;DHT22;12100;44.384;20.272;2022-09-21T15:19:28;13.90;98.70
23839;DHT22;12100;44.384;20.272;2022-09-21T15:22:16;13.90;98.20
23839;DHT22;12100;44.384;20.272;2022-09-21T15:24:56;13.90;98.70
23839;DHT22;12100;44.384;20.272;2022-09-21T15:27:28;13.90;98.40
23839;DHT22;12100;44.384;20.272;2022-09-21T15:30:03;13.80;99.80
23839;DHT22;12100;44.384;20.272;2022-09-21T15:32:40;13.60;99.90
23839;DHT22;12100;44.384;20.272;2022-09-21T15:35:17;13.50;99.90
23839;DHT22;12100;44.384;20.272;2022-09-21T15:37:44;13.30;99.90
23839;DHT22;12100;44.384;20.272;2022-09-21T15:40:17;13.20;99.90
23839;DHT22;12100;44.384;20.272;2022-09-21T15:43:19;13.00;99.90
23839;DHT22;12100;44.384;20.272;2022-09-21T15:45:58;13.00;99.90
23839;DHT22;12100;44.384;20.272;2022-09-21T15:48:31;12.90;99.90
23839;DHT22;12100;44.384;20.272;2022-09-21T15:53:54;12.60;99.90
23839;DHT22;12100;44.384;20.272;2022-09-21T15:56:24;12.50;99.90
23839;DHT22;12100;44.384;20.272;2022-09-21T15:58:57;12.40;99.90
23839;DHT22;12100;44.384;20.272;2022-09-21T16:01:23;12.40;99.90
23839;DHT22;12100;44.384;20.272;2022-09-21T16:04:03;12.40;99.90
23839;DHT22;12100;44.384;20.272;2022-09-21T16:06:38;12.30;99.90
23839;DHT22;12100;44.384;20.272;2022-09-21T16:11:52;12.30;99.90
23839;DHT22;12100;44.384;20.272;2022-09-21T16:14:18;12.30;99.90
23839;DHT22;12100;44.384;20.272;2022-09-21T16:17:05;12.30;99.90
23839;DHT22;12100;44.384;20.272;2022-09-21T16:19:44;12.30;99.90
23839;DHT22;12100;44.384;20.272;2022-09-21T16:24:57;12.30;99.90
23839;DHT22;12100;44.384;20.272;2022-09-21T16:27:26;12.10;99.90
23839;DHT22;12100;44.384;20.272;2022-09-21T16:29:53;12.10;99.90
23839;DHT22;12100;44.384;20.272;2022-09-21T16:32:24;12.00;99.90
23839;DHT22;12100;44.384;20.272;2022-09-21T16:34:53;11.80;99.90
23839;DHT22;12100;44.384;20.272;2022-09-21T16:37:29;11.80;99.90
23839;DHT22;12100;44.384;20.272;2022-09-21T16:39:57;11.70;99.90
23839;DHT22;12100;44.384;20.272;2022-09-21T16:42:26;11.60;99.90
23839;DHT22;12100;44.384;20.272;2022-09-21T16:44:53;11.60;99.90
23839;DHT22;12100;44.384;20.272;2022-09-21T16:47:25;11.60;99.90
23839;DHT22;12100;44.384;20.272;2022-09-21T16:49:58;11.50;99.90
23839;DHT22;12100;44.384;20.272;2022-09-21T16:52:28;11.50;99.90
23839;DHT22;12100;44.384;20.272;2022-09-21T16:54:55;11.50;99.90
23839;DHT22;12100;44.384;20.272;2022-09-21T16:57:22;11.50;99.90
23839;DHT22;12100;44.384;20.272;2022-09-21T16:59:48;11.50;99.90
23839;DHT22;12100;44.384;20.272;2022-09-21T17:02:15;11.50;99.90
23839;DHT22;12100;44.384;20.272;2022-09-21T17:04:42;11.50;99.90
23839;DHT22;12100;44.384;20.272;2022-09-21T17:07:10;11.50;99.90
23839;DHT22;12100;44.384;20.272;2022-09-21T17:09:39;11.40;99.90
23839;DHT22;12100;44.384;20.272;2022-09-21T17:12:09;11.30;99.90
23839;DHT22;12100;44.384;20.272;2022-09-21T17:14:36;11.30;99.90
23839;DHT22;12100;44.384;20.272;2022-09-21T17:19:34;11.30;99.90
23839;DHT22;12100;44.384;20.272;2022-09-21T17:22:04;11.30;99.90
23839;DHT22;12100;44.384;20.272;2022-09-21T17:24:31;11.30;99.90
23839;DHT22;12100;44.384;20.272;2022-09-21T17:26:57;11.40;99.90
23839;DHT22;12100;44.384;20.272;2022-09-21T17:29:25;11.40;99.90
23839;DHT22;12100;44.384;20.272;2022-09-21T17:31:56;11.50;99.90
23839;DHT22;12100;44.384;20.272;2022-09-21T17:34:27;11.50;99.90
23839;DHT22;12100;44.384;20.272;2022-09-21T17:36:54;11.60;99.90
23839;DHT22;12100;44.384;20.272;2022-09-21T17:39:21;11.50;99.90
23839;DHT22;12100;44.384;20.272;2022-09-21T17:41:51;11.50;99.90
23839;DHT22;12100;44.384;20.272;2022-09-21T17:44:30;11.50;99.90
23839;DHT22;12100;44.384;20.272;2022-09-21T17:47:26;11.40;99.90
23839;DHT22;12100;44.384;20.272;2022-09-21T17:49:56;11.40;99.90
23839;DHT22;12100;44.384;20.272;2022-09-21T17:52:24;11.40;99.90
23839;DHT22;12100;44.384;20.272;2022-09-21T17:55:12;11.40;99.90
23839;DHT22;12100;44.384;20.272;2022-09-21T18:00:27;11.50;99.90
23839;DHT22;12100;44.384;20.272;2022-09-21T18:02:58;11.50;99.90
23839;DHT22;12100;44.384;20.272;2022-09-21T18:05:27;11.50;99.90
23839;DHT22;12100;44.384;20.272;2022-09-21T18:07:53;11.60;99.90
23839;DHT22;12100;44.384;20.272;2022-09-21T18:10:21;11.60;99.90
23839;DHT22;12100;44.384;20.272;2022-09-21T18:13:11;11.70;99.90
23839;DHT22;12100;44.384;20.272;2022-09-21T18:19:21;11.80;99.90
23839;DHT22;12100;44.384;20.272;2022-09-21T18:21:21;11.80;99.90
23839;DHT22;12100;44.384;20.272;2022-09-21T18:26:43;11.80;99.90
23839;DHT22;12100;44.384;20.272;2022-09-21T18:29:27;11.80;99.90
23839;DHT22;12100;44.384;20.272;2022-09-21T18:43:01;11.80;99.90
23839;DHT22;12100;44.384;20.272;2022-09-21T18:45:39;11.80;99.90
23839;DHT22;12100;44.384;20.272;2022-09-21T18:53:38;11.80;99.90
23839;DHT22;12100;44.384;20.272;2022-09-21T18:56:10;11.80;99.90
23839;DHT22;12100;44.384;20.272;2022-09-21T18:58:37;11.80;99.90
23839;DHT22;12100;44.384;20.272;2022-09-21T19:01:04;11.70;99.90
23839;DHT22;12100;44.384;20.272;2022-09-21T19:03:30;11.70;99.90
23839;DHT22;12100;44.384;20.272;2022-09-21T19:11:42;11.60;99.90
23839;DHT22;12100;44.384;20.272;2022-09-21T19:22:48;11.50;99.90
23839;DHT22;12100;44.384;20.272;2022-09-21T19:25:30;11.50;99.90
23839;DHT22;12100;44.384;20.272;2022-09-21T19:30:50;11.30;99.90
23839;DHT22;12100;44.384;20.272;2022-09-21T19:33:29;11.40;99.90
23839;DHT22;12100;44.384;20.272;2022-09-21T19:35:56;11.40;99.90
23839;DHT22;12100;44.384;20.272;2022-09-21T19:38:25;11.30;99.90
23839;DHT22;12100;44.384;20.272;2022-09-21T19:41:03;11.30;99.90
23839;DHT22;12100;44.384;20.272;2022-09-21T19:43:31;11.40;99.90
23839;DHT22;12100;44.384;20.272;2022-09-21T19:48:58;11.40;99.90
23839;DHT22;12100;44.384;20.272;2022-09-21T19:52:09;11.40;99.90
23839;DHT22;12100;44.384;20.272;2022-09-21T19:54:27;11.30;99.90
23839;DHT22;12100;44.384;20.272;2022-09-21T19:57:17;11.40;99.90
23839;DHT22;12100;44.384;20.272;2022-09-21T20:00:05;11.40;99.90